createdAt,value
2022-09-01T00:02:51.524Z,11.40
2022-09-01T00:07:56.536Z,11.47
2022-09-01T00:13:00.143Z,11.46
2022-09-01T00:18:03.863Z,11.46
2022-09-01T00:23:08.722Z,11.39
2022-09-01T00:28:12.228Z,11.31
2022-09-01T00:33:15.818Z,11.22
2022-09-01T00:38:20.927Z,11.23
2022-09-01T00:43:37.042Z,11.30
2022-09-01T00:48:40.946Z,11.20
2022-09-01T00:53:49.312Z,11.30
2022-09-01T00:58:54.073Z,11.25
2022-09-01T01:04:02.714Z,11.22
2022-09-01T01:09:07.522Z,10.97
2022-09-01T01:14:12.191Z,10.72
2022-09-01T01:19:39.145Z,10.54
2022-09-01T01:24:46.435Z,10.38
2022-09-01T01:29:50.367Z,10.27
2022-09-01T01:34:53.974Z,10.11
2022-09-01T01:39:58.925Z,10.08
2022-09-01T01:45:03.414Z,10.01
2022-09-01T01:50:09.565Z,9.76
2022-09-01T01:55:14.567Z,9.88
2022-09-01T02:00:27.019Z,9.82
2022-09-01T02:05:36.860Z,9.49
2022-09-01T02:10:46.536Z,9.60
2022-09-01T02:15:53.928Z,9.53
2022-09-01T02:20:59.030Z,9.74
2022-09-01T02:26:16.015Z,9.86
2022-09-01T02:31:21.175Z,9.82
2022-09-01T02:36:26.172Z,10.13
2022-09-01T02:41:34.657Z,10.17
2022-09-01T02:46:41.958Z,10.26
2022-09-01T02:51:47.614Z,10.34
2022-09-01T02:56:54.901Z,10.47
2022-09-01T03:01:58.752Z,10.34
2022-09-01T03:07:02.446Z,10.59
2022-09-01T03:12:07.517Z,10.72
2022-09-01T03:17:11.335Z,10.70
2022-09-01T03:22:14.887Z,10.68
2022-09-01T03:27:19.797Z,10.78
2022-09-01T03:32:23.318Z,10.84
2022-09-01T03:37:27.213Z,11.00
2022-09-01T03:42:33.509Z,10.97
2022-09-01T03:47:40.587Z,11.15
2022-09-01T03:52:44.730Z,11.23
2022-09-01T03:57:49.522Z,11.15
2022-09-01T04:02:56.176Z,11.13
2022-09-01T04:08:02.673Z,11.40
2022-09-01T04:13:11.820Z,11.64
2022-09-01T04:18:21.682Z,11.71
2022-09-01T04:23:30.090Z,11.99
2022-09-01T04:28:36.699Z,12.11
2022-09-01T04:33:40.409Z,11.94
2022-09-01T04:38:43.990Z,12.21
2022-09-01T04:43:52.326Z,12.30
2022-09-01T04:48:57.718Z,12.25
2022-09-01T04:54:03.812Z,12.49
2022-09-01T04:59:10.990Z,12.44
2022-09-01T05:04:18.066Z,12.47
2022-09-01T05:09:22.529Z,12.61
2022-09-01T05:14:27.934Z,13.01
2022-09-01T05:19:31.345Z,12.84
2022-09-01T05:24:39.929Z,13.02
2022-09-01T05:29:47.254Z,12.88
2022-09-01T05:34:53.825Z,13.67
2022-09-01T05:39:57.940Z,14.00
2022-09-01T05:45:04.602Z,14.53
2022-09-01T05:50:14.333Z,14.33
2022-09-01T05:55:18.292Z,13.94
2022-09-01T06:00:25.312Z,14.18
2022-09-01T06:05:29.397Z,14.39
2022-09-01T06:10:34.005Z,14.58
2022-09-01T06:15:39.807Z,14.37
2022-09-01T06:20:44.751Z,14.75
2022-09-01T06:25:48.794Z,15.04
2022-09-01T06:30:54.039Z,14.97
2022-09-01T06:35:57.499Z,14.80
2022-09-01T06:41:05.291Z,14.58
2022-09-01T06:46:11.070Z,14.64
2022-09-01T06:51:19.204Z,14.99
2022-09-01T06:56:29.170Z,15.09
2022-09-01T07:01:39.622Z,15.34
2022-09-01T07:07:53.312Z,15.41
2022-09-01T07:12:25.340Z,15.38
2022-09-01T07:17:30.913Z,16.22
2022-09-01T07:22:36.103Z,16.60
2022-09-01T07:27:41.539Z,15.90
2022-09-01T07:32:47.657Z,15.51
2022-09-01T07:43:22.527Z,15.25
2022-09-01T07:49:02.604Z,15.58
2022-09-01T07:53:54.836Z,15.53
2022-09-01T07:58:59.533Z,15.42
2022-09-01T08:04:05.085Z,15.55
2022-09-01T08:09:11.965Z,15.83
2022-09-01T08:14:33.767Z,16.43
2022-09-01T08:19:39.376Z,16.39
2022-09-01T08:24:43.226Z,16.38
2022-09-01T08:29:46.678Z,16.51
2022-09-01T08:34:51.632Z,16.46
2022-09-01T08:39:55.804Z,16.18
2022-09-01T08:45:05.488Z,15.44
2022-09-01T08:50:12.321Z,15.78
2022-09-01T08:55:22.261Z,16.03
2022-09-01T09:00:30.340Z,16.06
2022-09-01T09:05:44.851Z,16.00
2022-09-01T09:10:53.572Z,16.13
2022-09-01T09:16:09.208Z,16.33
2022-09-01T09:21:19.745Z,16.49
2022-09-01T09:26:23.243Z,16.25
2022-09-01T09:31:32.036Z,15.51
2022-09-01T09:36:38.247Z,15.48
2022-09-01T09:41:43.077Z,15.35
2022-09-01T09:46:55.658Z,15.08
2022-09-01T09:52:58.918Z,15.00
2022-09-01T09:58:12.708Z,15.29
2022-09-01T10:03:16.706Z,16.30
2022-09-01T10:08:45.304Z,16.24
2022-09-01T10:13:51.491Z,16.34
2022-09-01T10:19:00.961Z,15.96
2022-09-01T10:30:46.077Z,15.67
2022-09-01T10:35:52.749Z,15.58
2022-09-01T10:41:09.216Z,14.89
2022-09-01T10:46:50.774Z,14.44
2022-09-01T10:51:57.074Z,14.34
2022-09-01T10:57:09.015Z,14.92
2022-09-01T11:02:26.761Z,15.09
2022-09-01T11:07:50.737Z,14.55
2022-09-01T11:13:24.736Z,15.37
2022-09-01T11:18:32.169Z,15.73
2022-09-01T11:23:35.770Z,16.30
2022-09-01T11:28:44.301Z,16.23
2022-09-01T11:34:21.522Z,16.55
2022-09-01T11:39:50.622Z,16.19
2022-09-01T11:44:59.209Z,15.69
2022-09-01T11:50:07.933Z,15.38
2022-09-01T11:55:28.906Z,15.41
2022-09-01T12:00:38.671Z,15.07
2022-09-01T12:05:50.838Z,15.27
2022-09-01T12:11:05.753Z,15.44
2022-09-01T12:16:22.243Z,15.62
2022-09-01T12:21:29.226Z,16.24
2022-09-01T12:26:32.957Z,16.06
2022-09-01T12:31:37.686Z,16.12
2022-09-01T12:36:43.509Z,15.88
2022-09-01T12:41:52.058Z,16.05
2022-09-01T12:46:55.737Z,16.48
2022-09-01T12:52:20.052Z,16.29
2022-09-01T12:57:30.880Z,16.03
2022-09-01T13:02:38.066Z,15.89
2022-09-01T13:07:43.310Z,15.95
2022-09-01T13:12:47.015Z,16.16
2022-09-01T13:17:50.507Z,16.38
2022-09-01T13:22:55.599Z,16.51
2022-09-01T13:28:00.563Z,16.26
2022-09-01T13:33:21.010Z,15.98
2022-09-01T13:38:28.422Z,15.48
2022-09-01T13:43:32.502Z,15.72
2022-09-01T13:54:02.185Z,15.61
2022-09-01T13:59:06.186Z,15.78
2022-09-01T14:04:26.615Z,15.85
2022-09-01T14:10:17.080Z,15.67
2022-09-01T14:15:26.584Z,15.84
2022-09-01T14:20:36.923Z,15.50
2022-09-01T14:25:47.853Z,15.35
2022-09-01T14:35:58.575Z,14.68
2022-09-01T14:41:04.857Z,14.51
2022-09-01T14:46:11.222Z,14.36
2022-09-01T14:51:23.771Z,14.06
2022-09-01T14:56:28.757Z,13.90
2022-09-01T15:01:35.151Z,13.63
2022-09-01T15:06:41.176Z,13.73
2022-09-01T15:11:56.818Z,13.70
2022-09-01T15:17:03.290Z,13.67
2022-09-01T15:22:07.008Z,13.49
2022-09-01T15:27:26.742Z,13.43
2022-09-01T15:32:33.680Z,13.50
2022-09-01T15:37:38.217Z,13.39
2022-09-01T15:42:44.170Z,13.24
2022-09-01T15:48:14.523Z,13.08
2022-09-01T15:53:19.510Z,12.95
2022-09-01T15:58:27.125Z,12.97
2022-09-01T16:03:40.068Z,12.72
2022-09-01T16:08:44.730Z,12.44
2022-09-01T16:13:53.828Z,12.32
2022-09-01T16:19:02.974Z,12.32
2022-09-01T16:24:10.959Z,12.22
2022-09-01T16:29:22.800Z,12.03
2022-09-01T16:34:28.487Z,11.83
2022-09-01T16:39:42.675Z,11.51
2022-09-01T16:44:59.038Z,11.13
2022-09-01T16:50:15.032Z,10.99
2022-09-01T16:55:26.580Z,10.78
2022-09-01T17:00:45.401Z,10.69
2022-09-01T17:05:56.689Z,10.64
2022-09-01T17:11:11.280Z,10.51
2022-09-01T17:16:23.513Z,10.58
2022-09-01T17:21:33.524Z,10.73
2022-09-01T17:26:37.318Z,10.69
2022-09-01T17:31:56.122Z,10.54
2022-09-01T17:37:08.231Z,10.50
2022-09-01T17:42:25.121Z,10.54
2022-09-01T17:47:37.566Z,10.48
2022-09-01T17:52:53.494Z,10.60
2022-09-01T17:58:01.727Z,10.62
2022-09-01T18:03:26.330Z,10.57
2022-09-01T18:08:40.764Z,10.68
2022-09-01T18:13:53.334Z,10.59
2022-09-01T18:19:06.280Z,10.36
2022-09-01T18:24:17.012Z,10.08
2022-09-01T18:29:24.839Z,9.96
2022-09-01T18:34:44.420Z,9.92
2022-09-01T18:39:59.097Z,9.99
2022-09-01T18:45:08.647Z,9.96
2022-09-01T18:50:21.651Z,9.88
2022-09-01T18:55:37.404Z,9.77
2022-09-01T19:00:47.551Z,9.68
2022-09-01T19:06:13.112Z,9.57
2022-09-01T19:11:27.669Z,9.46
2022-09-01T19:16:42.777Z,9.62
2022-09-01T19:21:50.634Z,9.76
2022-09-01T19:27:01.985Z,9.83
2022-09-01T19:32:10.306Z,9.78
2022-09-01T19:37:16.158Z,9.77
2022-09-01T19:42:26.661Z,9.59
2022-09-01T19:47:38.525Z,9.43
2022-09-01T19:52:53.047Z,9.20
2022-09-01T19:58:00.253Z,9.16
2022-09-01T20:03:09.159Z,9.01
2022-09-01T20:08:24.220Z,8.93
2022-09-01T20:13:59.327Z,8.82
2022-09-01T20:19:08.753Z,8.80
2022-09-01T20:24:21.357Z,8.65
2022-09-01T20:29:32.528Z,8.61
2022-09-01T20:34:42.693Z,8.57
2022-09-01T20:40:11.798Z,8.58
2022-09-01T20:45:20.312Z,8.56
2022-09-01T20:50:29.232Z,8.54
2022-09-01T20:55:41.409Z,8.51
2022-09-01T21:00:50.958Z,8.28
2022-09-01T21:05:59.856Z,8.30
2022-09-01T21:11:20.624Z,8.11
2022-09-01T21:16:35.515Z,8.16
2022-09-01T21:21:46.540Z,8.24
2022-09-01T21:26:52.260Z,8.45
2022-09-01T21:31:57.013Z,8.70
2022-09-01T21:37:01.145Z,8.96
2022-09-01T21:42:09.306Z,9.13
2022-09-01T21:47:13.223Z,9.22
2022-09-01T21:52:17.118Z,9.32
2022-09-01T21:57:23.862Z,9.42
2022-09-01T22:02:28.547Z,9.35
2022-09-01T22:07:32.705Z,9.37
2022-09-01T22:12:39.295Z,9.43
2022-09-01T22:17:42.908Z,9.35
2022-09-01T22:22:46.892Z,9.41
2022-09-01T22:27:52.464Z,9.39
2022-09-01T22:32:57.185Z,9.38
2022-09-01T22:38:01.157Z,9.43
2022-09-01T22:43:06.289Z,9.48
2022-09-01T22:48:10.135Z,9.44
2022-09-01T22:53:15.234Z,9.44
2022-09-01T22:58:21.621Z,9.56
2022-09-01T23:03:25.148Z,9.42
2022-09-01T23:08:28.548Z,9.53
2022-09-01T23:13:34.139Z,9.54
2022-09-01T23:18:40.769Z,9.59
2022-09-01T23:23:46.076Z,9.58
2022-09-01T23:28:51.326Z,9.61
2022-09-01T23:33:55.944Z,9.55
2022-09-01T23:39:00.140Z,9.50
2022-09-01T23:44:09.458Z,9.42
2022-09-01T23:49:15.085Z,9.47
2022-09-01T23:54:18.590Z,9.56
2022-09-01T23:59:27.424Z,9.65
